Time,TemperatureF,DewpointF,PressureIn,WindDirection,WindDirectionDegrees,WindSpeedMPH,WindSpeedGustMPH,Humidity,HourlyPrecipIn,Conditions,Clouds,dailyrainin,SoftwareType,DateUTC
2013-04-27 00:02:00,47.7,46.3,0.00,East,85,1.5,3.5,95,0.00,,,0.00,WUHU216CR1000,2013-04-27 07:02:00,
2013-04-27 00:07:00,47.7,46.3,0.00,East,85,1.5,3.5,95,0.00,,,0.00,WUHU216CR1000,2013-04-27 07:07:00,
2013-04-27 00:17:00,47.9,46.6,0.00,ESE,112,1.3,3.2,95,0.00,,,0.00,WUHU216CR1000,2013-04-27 07:17:00,
2013-04-27 00:22:00,47.9,46.6,0.00,ESE,112,1.3,3.2,95,0.00,,,0.00,WUHU216CR1000,2013-04-27 07:22:00,
2013-04-27 00:32:00,47.8,46.7,0.00,East,87,1.6,2.9,96,0.00,,,0.00,WUHU216CR1000,2013-04-27 07:32:00,
2013-04-27 00:37:00,47.8,46.7,0.00,East,87,1.6,2.9,96,0.00,,,0.00,WUHU216CR1000,2013-04-27 07:37:00,
2013-04-27 00:47:00,47.7,46.7,0.00,East,90,1.3,3.1,96,0.00,,,0.00,WUHU216CR1000,2013-04-27 07:47:00,
2013-04-27 00:52:00,47.7,46.7,0.00,East,90,1.3,3.1,96,0.00,,,0.00,WUHU216CR1000,2013-04-27 07:52:00,
2013-04-27 01:02:00,47.7,46.7,0.00,SE,131,1.5,3.5,96,0.00,,,0.00,WUHU216CR1000,2013-04-27 08:02:00,
2013-04-27 01:07:00,47.7,46.7,0.00,SE,131,1.5,3.5,96,0.00,,,0.00,WUHU216CR1000,2013-04-27 08:07:00,
2013-04-27 01:17:00,47.6,46.6,0.00,South,175,1.4,3.5,96,0.00,,,0.00,WUHU216CR1000,2013-04-27 08:17:00,
2013-04-27 01:22:00,47.6,46.6,0.00,South,175,1.4,3.5,96,0.00,,,0.00,WUHU216CR1000,2013-04-27 08:22:00,
2013-04-27 01:32:00,47.7,46.7,0.00,SSE,147,1.3,3.4,96,0.00,,,0.00,WUHU216CR1000,2013-04-27 08:32:00,
2013-04-27 01:37:00,47.7,46.7,0.00,SSE,147,1.3,3.4,96,0.00,,,0.00,WUHU216CR1000,2013-04-27 08:37:00,
2013-04-27 01:47:00,47.7,46.7,0.00,SSE,159,2.1,4.9,96,0.00,,,0.00,WUHU216CR1000,2013-04-27 08:47:00,
2013-04-27 01:52:00,47.7,46.7,0.00,SSE,159,2.1,4.9,96,0.00,,,0.00,WUHU216CR1000,2013-04-27 08:52:00,
2013-04-27 02:02:00,47.8,46.7,0.00,SSE,150,1.7,3.7,96,0.00,,,0.00,WUHU216CR1000,2013-04-27 09:02:00,
2013-04-27 02:07:00,47.8,46.7,0.00,SSE,150,1.7,3.7,96,0.00,,,0.00,WUHU216CR1000,2013-04-27 09:07:00,
2013-04-27 02:17:00,47.7,46.8,0.00,ENE,78,2.3,4.2,97,0.00,,,0.00,WUHU216CR1000,2013-04-27 09:17:00,
2013-04-27 02:22:00,47.7,46.8,0.00,ENE,78,2.3,4.2,97,0.00,,,0.00,WUHU216CR1000,2013-04-27 09:22:00,
2013-04-27 02:32:00,47.5,46.9,0.00,ENE,78,1.6,3.3,98,0.00,,,0.00,WUHU216CR1000,2013-04-27 09:32:00,
2013-04-27 02:37:00,47.5,46.9,0.00,ENE,78,1.6,3.3,98,0.00,,,0.00,WUHU216CR1000,2013-04-27 09:37:00,
2013-04-27 02:47:00,47.5,47.0,0.00,ENE,71,1.5,3.9,98,0.00,,,0.00,WUHU216CR1000,2013-04-27 09:47:00,
2013-04-27 02:52:00,47.5,47.0,0.00,ENE,71,1.5,3.9,98,0.00,,,0.00,WUHU216CR1000,2013-04-27 09:52:00,
2013-04-27 03:02:00,47.4,47.0,0.00,East,92,1.3,3.5,98,0.00,,,0.00,WUHU216CR1000,2013-04-27 10:02:00,
2013-04-27 03:07:00,47.4,47.0,0.00,East,92,1.3,3.5,98,0.00,,,0.00,WUHU216CR1000,2013-04-27 10:07:00,
2013-04-27 03:17:00,47.4,47.0,0.00,SE,124,0.8,2.9,99,0.00,,,0.00,WUHU216CR1000,2013-04-27 10:17:00,
2013-04-27 03:22:00,47.4,47.0,0.00,SE,124,0.8,2.9,99,0.00,,,0.00,WUHU216CR1000,2013-04-27 10:22:00,
2013-04-27 03:32:00,47.5,47.2,0.00,ENE,58,1.3,3.5,99,0.00,,,0.00,WUHU216CR1000,2013-04-27 10:32:00,
2013-04-27 03:37:00,47.5,47.2,0.00,ENE,58,1.3,3.5,99,0.00,,,0.00,WUHU216CR1000,2013-04-27 10:37:00,
2013-04-27 03:47:00,47.7,47.4,0.00,NNW,342,1.0,2.9,99,0.00,,,0.00,WUHU216CR1000,2013-04-27 10:47:00,
2013-04-27 03:52:00,47.7,47.4,0.00,NNW,342,1.0,2.9,99,0.00,,,0.00,WUHU216CR1000,2013-04-27 10:52:00,
2013-04-27 04:02:00,47.6,47.4,0.00,NW,305,1.2,2.7,99,0.00,,,0.00,WUHU216CR1000,2013-04-27 11:02:00,
2013-04-27 04:07:00,47.6,47.4,0.00,NW,305,1.2,2.7,99,0.00,,,0.00,WUHU216CR1000,2013-04-27 11:07:00,
2013-04-27 04:17:00,47.6,47.4,0.00,East,81,2.0,3.5,99,0.00,,,0.00,WUHU216CR1000,2013-04-27 11:17:00,
2013-04-27 04:22:00,47.6,47.4,0.00,East,81,2.0,3.5,99,0.00,,,0.00,WUHU216CR1000,2013-04-27 11:22:00,
2013-04-27 04:32:00,47.6,47.4,0.00,NE,39,2.4,3.7,99,0.00,,,0.00,WUHU216CR1000,2013-04-27 11:32:00,
2013-04-27 04:37:00,47.6,47.4,0.00,NE,39,2.4,3.7,99,0.00,,,0.00,WUHU216CR1000,2013-04-27 11:37:00,
2013-04-27 04:47:00,47.5,47.3,0.00,NE,47,1.3,3.5,99,0.00,,,0.00,WUHU216CR1000,2013-04-27 11:47:00,
2013-04-27 04:52:00,47.5,47.3,0.00,NE,47,1.3,3.5,99,0.00,,,0.00,WUHU216CR1000,2013-04-27 11:52:00,
2013-04-27 05:02:00,47.2,47.0,0.00,SE,143,0.4,2.9,99,0.00,,,0.00,WUHU216CR1000,2013-04-27 12:02:00,
2013-04-27 05:07:00,47.2,47.0,0.00,SE,143,0.4,2.9,99,0.00,,,0.00,WUHU216CR1000,2013-04-27 12:07:00,
2013-04-27 05:17:00,47.4,47.2,0.00,NE,46,1.1,3.2,99,0.00,,,0.00,WUHU216CR1000,2013-04-27 12:17:00,
2013-04-27 05:22:00,47.4,47.2,0.00,NE,46,1.1,3.2,99,0.00,,,0.00,WUHU216CR1000,2013-04-27 12:22:00,
2013-04-27 05:32:00,47.5,47.4,0.00,ENE,72,2.1,4.2,99,0.00,,,0.00,WUHU216CR1000,2013-04-27 12:32:00,
2013-04-27 05:37:00,47.5,47.4,0.00,ENE,72,2.1,4.2,99,0.00,,,0.00,WUHU216CR1000,2013-04-27 12:37:00,
2013-04-27 05:47:00,47.5,47.4,0.00,ENE,61,1.9,3.3,99,0.00,,,0.00,WUHU216CR1000,2013-04-27 12:47:00,
2013-04-27 05:52:00,47.5,47.4,0.00,ENE,61,1.9,3.3,99,0.00,,,0.00,WUHU216CR1000,2013-04-27 12:52:00,
2013-04-27 06:02:00,47.7,47.5,0.00,ENE,75,1.3,3.1,99,0.00,,,0.00,WUHU216CR1000,2013-04-27 13:02:00,
2013-04-27 06:07:00,47.7,47.5,0.00,ENE,75,1.3,3.1,99,0.00,,,0.00,WUHU216CR1000,2013-04-27 13:07:00,
2013-04-27 06:17:00,47.7,47.5,0.00,ENE,62,1.7,3.6,99,0.00,,,0.00,WUHU216CR1000,2013-04-27 13:17:00,
2013-04-27 06:22:00,47.7,47.5,0.00,ENE,62,1.7,3.6,99,0.00,,,0.00,WUHU216CR1000,2013-04-27 13:22:00,
2013-04-27 06:32:00,47.8,47.6,0.00,ENE,72,1.7,3.9,99,0.00,,,0.00,WUHU216CR1000,2013-04-27 13:32:00,
2013-04-27 06:37:00,47.8,47.6,0.00,ENE,72,1.7,3.9,99,0.00,,,0.00,WUHU216CR1000,2013-04-27 13:37:00,
2013-04-27 06:48:00,47.9,47.7,0.00,East,84,1.2,3.0,99,0.00,,,0.00,WUHU216CR1000,2013-04-27 13:48:00,
2013-04-27 06:53:00,47.9,47.7,0.00,East,84,1.2,3.0,99,0.00,,,0.00,WUHU216CR1000,2013-04-27 13:53:00,
2013-04-27 07:02:00,47.8,47.6,0.00,ESE,105,1.2,2.9,99,0.00,,,0.00,WUHU216CR1000,2013-04-27 14:02:00,
2013-04-27 07:07:00,47.8,47.6,0.00,ESE,105,1.2,2.9,99,0.00,,,0.00,WUHU216CR1000,2013-04-27 14:07:00,
2013-04-27 07:17:00,47.8,47.6,0.00,East,101,1.3,2.9,99,0.00,,,0.00,WUHU216CR1000,2013-04-27 14:17:00,
2013-04-27 07:22:00,47.8,47.6,0.00,East,101,1.3,2.9,99,0.00,,,0.00,WUHU216CR1000,2013-04-27 14:22:00,
2013-04-27 07:32:00,48.0,47.8,0.00,SE,138,1.2,2.7,99,0.00,,,0.00,WUHU216CR1000,2013-04-27 14:32:00,
2013-04-27 07:37:00,48.0,47.8,0.00,SE,138,1.2,2.7,99,0.00,,,0.00,WUHU216CR1000,2013-04-27 14:37:00,
2013-04-27 07:47:00,48.4,48.3,0.00,NNE,21,1.3,3.2,100,0.00,,,0.00,WUHU216CR1000,2013-04-27 14:47:00,
2013-04-27 07:52:00,48.4,48.3,0.00,NNE,21,1.3,3.2,100,0.00,,,0.00,WUHU216CR1000,2013-04-27 14:52:00,
2013-04-27 08:02:00,48.4,48.2,0.00,NW,312,1.0,3.4,100,0.00,,,0.00,WUHU216CR1000,2013-04-27 15:02:00,
2013-04-27 08:07:00,48.4,48.2,0.00,NW,312,1.0,3.4,100,0.00,,,0.00,WUHU216CR1000,2013-04-27 15:07:00,
2013-04-27 08:17:00,48.5,48.4,0.00,NNW,338,1.5,3.7,100,0.00,,,0.00,WUHU216CR1000,2013-04-27 15:17:00,
2013-04-27 08:22:00,48.5,48.4,0.00,NNW,338,1.5,3.7,100,0.00,,,0.00,WUHU216CR1000,2013-04-27 15:22:00,
2013-04-27 08:32:00,48.5,48.3,0.00,North,3,1.9,3.9,99,0.00,,,0.00,WUHU216CR1000,2013-04-27 15:32:00,
2013-04-27 08:37:00,48.5,48.3,0.00,North,3,1.9,3.9,99,0.00,,,0.00,WUHU216CR1000,2013-04-27 15:37:00,
2013-04-27 08:47:00,48.6,48.4,0.00,NNE,19,1.2,3.6,99,0.00,,,0.00,WUHU216CR1000,2013-04-27 15:47:00,
2013-04-27 08:52:00,48.6,48.4,0.00,NNE,19,1.2,3.6,99,0.00,,,0.00,WUHU216CR1000,2013-04-27 15:52:00,
2013-04-27 09:02:00,48.8,48.6,0.00,North,11,2.2,5.6,99,0.00,,,0.00,WUHU216CR1000,2013-04-27 16:02:00,
2013-04-27 09:07:00,48.8,48.6,0.00,North,11,2.2,5.6,99,0.00,,,0.00,WUHU216CR1000,2013-04-27 16:07:00,
2013-04-27 09:17:00,49.1,48.5,0.00,NE,53,2.2,4.1,98,0.00,,,0.00,WUHU216CR1000,2013-04-27 16:17:00,
2013-04-27 09:22:00,49.1,48.5,0.00,NE,53,2.2,4.1,98,0.00,,,0.00,WUHU216CR1000,2013-04-27 16:22:00,
2013-04-27 09:32:00,49.7,48.1,0.00,North,11,1.9,4.7,94,0.00,,,0.00,WUHU216CR1000,2013-04-27 16:32:00,
2013-04-27 09:37:00,49.7,48.1,0.00,North,11,1.9,4.7,94,0.00,,,0.00,WUHU216CR1000,2013-04-27 16:37:00,
2013-04-27 09:47:00,50.2,48.1,0.00,NNW,335,1.9,3.7,93,0.00,,,0.00,WUHU216CR1000,2013-04-27 16:47:00,
2013-04-27 09:52:00,50.2,48.1,0.00,NNW,335,1.9,3.7,93,0.00,,,0.00,WUHU216CR1000,2013-04-27 16:52:00,
2013-04-27 10:02:00,51.1,48.2,0.00,ENE,61,1.7,4.1,90,0.00,,,0.00,WUHU216CR1000,2013-04-27 17:02:00,
2013-04-27 10:07:00,51.1,48.2,0.00,ENE,61,1.7,4.1,90,0.00,,,0.00,WUHU216CR1000,2013-04-27 17:07:00,
2013-04-27 10:17:00,52.2,48.7,0.00,WSW,248,1.4,5.2,88,0.00,,,0.00,WUHU216CR1000,2013-04-27 17:17:00,
2013-04-27 10:22:00,52.2,48.7,0.00,WSW,248,1.4,5.2,88,0.00,,,0.00,WUHU216CR1000,2013-04-27 17:22:00,
2013-04-27 10:32:00,52.7,49.0,0.00,WSW,243,2.7,6.2,87,0.00,,,0.00,WUHU216CR1000,2013-04-27 17:32:00,
2013-04-27 10:37:00,52.7,49.0,0.00,WSW,243,2.7,6.2,87,0.00,,,0.00,WUHU216CR1000,2013-04-27 17:37:00,
2013-04-27 10:47:00,53.3,49.3,0.00,WSW,250,2.4,5.3,86,0.00,,,0.00,WUHU216CR1000,2013-04-27 17:47:00,
2013-04-27 10:52:00,53.3,49.3,0.00,WSW,250,2.4,5.3,86,0.00,,,0.00,WUHU216CR1000,2013-04-27 17:52:00,
2013-04-27 11:02:00,55.2,49.7,0.00,SSW,205,2.6,5.5,81,0.00,,,0.00,WUHU216CR1000,2013-04-27 18:02:00,
2013-04-27 11:07:00,55.2,49.7,0.00,SSW,205,2.6,5.5,81,0.00,,,0.00,WUHU216CR1000,2013-04-27 18:07:00,
2013-04-27 11:17:00,57.2,50.0,0.00,SSW,211,2.6,5.9,77,0.00,,,0.00,WUHU216CR1000,2013-04-27 18:17:00,
2013-04-27 11:22:00,57.2,50.0,0.00,SSW,211,2.6,5.9,77,0.00,,,0.00,WUHU216CR1000,2013-04-27 18:22:00,
2013-04-27 11:32:00,58.6,50.3,0.00,South,182,2.9,7.0,74,0.00,,,0.00,WUHU216CR1000,2013-04-27 18:32:00,
2013-04-27 11:37:00,58.6,50.3,0.00,South,182,2.9,7.0,74,0.00,,,0.00,WUHU216CR1000,2013-04-27 18:37:00,
2013-04-27 11:47:00,60.5,50.3,0.00,SSW,199,2.7,6.0,69,0.00,,,0.00,WUHU216CR1000,2013-04-27 18:47:00,
2013-04-27 11:52:00,60.5,50.3,0.00,SSW,199,2.7,6.0,69,0.00,,,0.00,WUHU216CR1000,2013-04-27 18:52:00,
2013-04-27 12:02:00,62.1,51.0,0.00,South,175,3.1,7.5,67,0.00,,,0.00,WUHU216CR1000,2013-04-27 19:02:00,
2013-04-27 12:07:00,62.1,51.0,0.00,South,175,3.1,7.5,67,0.00,,,0.00,WUHU216CR1000,2013-04-27 19:07:00,
2013-04-27 12:17:00,64.2,51.2,0.00,SSW,198,3.1,6.1,63,0.00,,,0.00,WUHU216CR1000,2013-04-27 19:17:00,
2013-04-27 12:22:00,64.2,51.2,0.00,SSW,198,3.1,6.1,63,0.00,,,0.00,WUHU216CR1000,2013-04-27 19:22:00,
2013-04-27 12:32:00,65.5,51.8,0.00,South,176,2.7,6.4,61,0.00,,,0.00,WUHU216CR1000,2013-04-27 19:32:00,
2013-04-27 12:37:00,65.5,51.8,0.00,South,176,2.7,6.4,61,0.00,,,0.00,WUHU216CR1000,2013-04-27 19:37:00,
2013-04-27 12:47:00,66.8,52.6,0.00,SW,225,2.8,7.3,60,0.00,,,0.00,WUHU216CR1000,2013-04-27 19:47:00,
2013-04-27 12:52:00,66.8,52.6,0.00,SW,225,2.8,7.3,60,0.00,,,0.00,WUHU216CR1000,2013-04-27 19:52:00,
2013-04-27 13:02:00,68.6,52.9,0.00,SW,219,2.8,6.1,57,0.00,,,0.00,WUHU216CR1000,2013-04-27 20:02:00,
2013-04-27 13:07:00,68.6,52.9,0.00,SW,219,2.8,6.1,57,0.00,,,0.00,WUHU216CR1000,2013-04-27 20:07:00,
2013-04-27 13:17:00,70.4,53.3,0.00,SSE,150,3.7,9.5,55,0.00,,,0.00,WUHU216CR1000,2013-04-27 20:17:00,
2013-04-27 13:22:00,70.4,53.3,0.00,SSE,150,3.7,9.5,55,0.00,,,0.00,WUHU216CR1000,2013-04-27 20:22:00,
2013-04-27 13:32:00,72.5,54.0,0.00,ESE,123,4.5,9.5,52,0.00,,,0.00,WUHU216CR1000,2013-04-27 20:32:00,
2013-04-27 13:37:00,72.5,54.0,0.00,ESE,123,4.5,9.5,52,0.00,,,0.00,WUHU216CR1000,2013-04-27 20:37:00,
2013-04-27 13:47:00,72.9,54.7,0.00,SE,135,5.1,8.9,53,0.00,,,0.00,WUHU216CR1000,2013-04-27 20:47:00,
2013-04-27 13:52:00,72.9,54.7,0.00,SE,135,5.1,8.9,53,0.00,,,0.00,WUHU216CR1000,2013-04-27 20:52:00,
2013-04-27 14:02:00,73.6,55.2,0.00,ESE,103,5.6,10.5,53,0.00,,,0.00,WUHU216CR1000,2013-04-27 21:02:00,
2013-04-27 14:07:00,73.6,55.2,0.00,ESE,103,5.6,10.5,53,0.00,,,0.00,WUHU216CR1000,2013-04-27 21:07:00,
2013-04-27 14:17:00,73.6,55.6,0.00,ESE,121,5.2,11.0,53,0.00,,,0.00,WUHU216CR1000,2013-04-27 21:17:00,
2013-04-27 14:22:00,73.6,55.6,0.00,ESE,121,5.2,11.0,53,0.00,,,0.00,WUHU216CR1000,2013-04-27 21:22:00,
2013-04-27 14:32:00,74.3,55.7,0.00,ESE,117,5.4,10.6,52,0.00,,,0.00,WUHU216CR1000,2013-04-27 21:32:00,
2013-04-27 14:37:00,74.3,55.7,0.00,ESE,117,5.4,10.6,52,0.00,,,0.00,WUHU216CR1000,2013-04-27 21:37:00,
2013-04-27 14:47:00,74.3,55.9,0.00,ESE,115,6.0,11.2,53,0.00,,,0.00,WUHU216CR1000,2013-04-27 21:47:00,
2013-04-27 14:52:00,74.3,55.9,0.00,ESE,115,6.0,11.2,53,0.00,,,0.00,WUHU216CR1000,2013-04-27 21:52:00,
2013-04-27 15:02:00,74.6,55.4,0.00,SSE,165,5.7,10.9,51,0.00,,,0.00,WUHU216CR1000,2013-04-27 22:02:00,
2013-04-27 15:07:00,74.6,55.4,0.00,SSE,165,5.7,10.9,51,0.00,,,0.00,WUHU216CR1000,2013-04-27 22:07:00,
2013-04-27 15:17:00,73.9,52.5,0.00,SE,124,6.2,12.5,47,0.00,,,0.00,WUHU216CR1000,2013-04-27 22:17:00,
2013-04-27 15:22:00,73.9,52.5,0.00,SE,124,6.2,12.5,47,0.00,,,0.00,WUHU216CR1000,2013-04-27 22:22:00,
2013-04-27 15:32:00,72.3,50.8,0.00,ESE,115,7.3,12.8,47,0.00,,,0.00,WUHU216CR1000,2013-04-27 22:32:00,
2013-04-27 15:37:00,72.3,50.8,0.00,ESE,115,7.3,12.8,47,0.00,,,0.00,WUHU216CR1000,2013-04-27 22:37:00,
2013-04-27 15:47:00,72.6,51.8,0.00,ESE,115,6.7,12.9,48,0.00,,,0.00,WUHU216CR1000,2013-04-27 22:47:00,
2013-04-27 15:52:00,72.6,51.8,0.00,ESE,115,6.7,12.9,48,0.00,,,0.00,WUHU216CR1000,2013-04-27 22:52:00,
2013-04-27 16:02:00,72.5,52.4,0.00,ESE,123,5.8,11.2,49,0.00,,,0.00,WUHU216CR1000,2013-04-27 23:02:00,
2013-04-27 16:07:00,72.5,52.4,0.00,ESE,123,5.8,11.2,49,0.00,,,0.00,WUHU216CR1000,2013-04-27 23:07:00,
2013-04-27 16:17:00,72.2,51.7,0.00,ESE,107,7.4,10.9,48,0.00,,,0.00,WUHU216CR1000,2013-04-27 23:17:00,
2013-04-27 16:22:00,72.2,51.7,0.00,ESE,107,7.4,10.9,48,0.00,,,0.00,WUHU216CR1000,2013-04-27 23:22:00,
2013-04-27 16:32:00,71.3,51.5,0.00,ESE,116,7.6,12.8,50,0.00,,,0.00,WUHU216CR1000,2013-04-27 23:32:00,
2013-04-27 16:37:00,71.3,51.5,0.00,ESE,116,7.6,12.8,50,0.00,,,0.00,WUHU216CR1000,2013-04-27 23:37:00,
2013-04-27 16:47:00,70.6,51.8,0.00,ESE,118,7.4,13.9,51,0.00,,,0.00,WUHU216CR1000,2013-04-27 23:47:00,
2013-04-27 16:52:00,70.6,51.8,0.00,ESE,118,7.4,13.9,51,0.00,,,0.00,WUHU216CR1000,2013-04-27 23:52:00,
2013-04-27 17:02:00,70.0,52.4,0.00,ESE,116,7.0,11.5,54,0.00,,,0.00,WUHU216CR1000,2013-04-28 00:02:00,
2013-04-27 17:07:00,70.0,52.4,0.00,ESE,116,7.0,11.5,54,0.00,,,0.00,WUHU216CR1000,2013-04-28 00:07:00,
2013-04-27 17:17:00,69.1,52.7,0.00,ESE,119,6.4,11.7,56,0.00,,,0.00,WUHU216CR1000,2013-04-28 00:17:00,
2013-04-27 17:22:00,69.1,52.7,0.00,ESE,119,6.4,11.7,56,0.00,,,0.00,WUHU216CR1000,2013-04-28 00:22:00,
2013-04-27 17:32:00,69.1,53.1,0.00,ESE,110,6.1,10.9,57,0.00,,,0.00,WUHU216CR1000,2013-04-28 00:32:00,
2013-04-27 17:37:00,69.1,53.1,0.00,ESE,110,6.1,10.9,57,0.00,,,0.00,WUHU216CR1000,2013-04-28 00:37:00,
2013-04-27 17:47:00,67.8,52.5,0.00,ESE,115,7.0,11.3,58,0.00,,,0.00,WUHU216CR1000,2013-04-28 00:47:00,
2013-04-27 17:52:00,67.8,52.5,0.00,ESE,115,7.0,11.3,58,0.00,,,0.00,WUHU216CR1000,2013-04-28 00:52:00,
2013-04-27 18:02:00,67.2,52.2,0.00,ESE,112,5.7,9.5,59,0.00,,,0.00,WUHU216CR1000,2013-04-28 01:02:00,
2013-04-27 18:07:00,67.2,52.2,0.00,ESE,112,5.7,9.5,59,0.00,,,0.00,WUHU216CR1000,2013-04-28 01:07:00,
2013-04-27 18:17:00,65.8,51.9,0.00,ESE,119,6.1,10.1,61,0.00,,,0.00,WUHU216CR1000,2013-04-28 01:17:00,
2013-04-27 18:22:00,65.8,51.9,0.00,ESE,119,6.1,10.1,61,0.00,,,0.00,WUHU216CR1000,2013-04-28 01:22:00,
2013-04-27 18:32:00,65.3,52.0,0.00,ESE,116,4.9,9.0,62,0.00,,,0.00,WUHU216CR1000,2013-04-28 01:32:00,
2013-04-27 18:37:00,65.3,52.0,0.00,ESE,116,4.9,9.0,62,0.00,,,0.00,WUHU216CR1000,2013-04-28 01:37:00,
2013-04-27 18:47:00,64.1,51.5,0.00,ESE,113,4.2,9.2,64,0.00,,,0.00,WUHU216CR1000,2013-04-28 01:47:00,
2013-04-27 18:52:00,64.1,51.5,0.00,ESE,113,4.2,9.2,64,0.00,,,0.00,WUHU216CR1000,2013-04-28 01:52:00,
2013-04-27 19:02:00,63.2,51.4,0.00,ESE,117,3.6,6.9,65,0.00,,,0.00,WUHU216CR1000,2013-04-28 02:02:00,
2013-04-27 19:07:00,63.2,51.4,0.00,ESE,117,3.6,6.9,65,0.00,,,0.00,WUHU216CR1000,2013-04-28 02:07:00,
2013-04-27 19:17:00,61.5,51.1,0.00,East,97,5.4,8.3,69,0.00,,,0.00,WUHU216CR1000,2013-04-28 02:17:00,
2013-04-27 19:22:00,61.5,51.1,0.00,East,97,5.4,8.3,69,0.00,,,0.00,WUHU216CR1000,2013-04-28 02:22:00,
2013-04-27 19:32:00,59.8,50.7,0.00,ESE,110,4.2,7.1,72,0.00,,,0.00,WUHU216CR1000,2013-04-28 02:32:00,
2013-04-27 19:37:00,59.8,50.7,0.00,ESE,110,4.2,7.1,72,0.00,,,0.00,WUHU216CR1000,2013-04-28 02:37:00,
2013-04-27 19:47:00,58.2,50.3,0.00,ESE,114,4.5,7.3,75,0.00,,,0.00,WUHU216CR1000,2013-04-28 02:47:00,
2013-04-27 19:52:00,58.2,50.3,0.00,ESE,114,4.5,7.3,75,0.00,,,0.00,WUHU216CR1000,2013-04-28 02:52:00,
2013-04-27 20:02:00,56.5,49.7,0.00,ESE,108,4.0,6.5,78,0.00,,,0.00,WUHU216CR1000,2013-04-28 03:02:00,
2013-04-27 20:07:00,56.5,49.7,0.00,ESE,108,4.0,6.5,78,0.00,,,0.00,WUHU216CR1000,2013-04-28 03:07:00,
2013-04-27 20:17:00,55.0,49.3,0.00,East,101,3.9,6.7,81,0.00,,,0.00,WUHU216CR1000,2013-04-28 03:17:00,
2013-04-27 20:22:00,55.0,49.3,0.00,East,101,3.9,6.7,81,0.00,,,0.00,WUHU216CR1000,2013-04-28 03:22:00,
2013-04-27 20:32:00,53.9,48.9,0.00,ESE,104,4.1,6.4,83,0.00,,,0.00,WUHU216CR1000,2013-04-28 03:32:00,
2013-04-27 20:37:00,53.9,48.9,0.00,ESE,104,4.1,6.4,83,0.00,,,0.00,WUHU216CR1000,2013-04-28 03:37:00,
2013-04-27 20:47:00,53.2,48.5,0.00,East,95,2.7,4.3,84,0.00,,,0.00,WUHU216CR1000,2013-04-28 03:47:00,
2013-04-27 20:52:00,53.2,48.5,0.00,East,95,2.7,4.3,84,0.00,,,0.00,WUHU216CR1000,2013-04-28 03:52:00,
2013-04-27 21:02:00,52.1,48.0,0.00,East,85,2.6,4.8,86,0.00,,,0.00,WUHU216CR1000,2013-04-28 04:02:00,
2013-04-27 21:07:00,52.1,48.0,0.00,East,85,2.6,4.8,86,0.00,,,0.00,WUHU216CR1000,2013-04-28 04:07:00,
2013-04-27 21:17:00,51.3,47.9,0.00,ENE,77,2.0,3.4,88,0.00,,,0.00,WUHU216CR1000,2013-04-28 04:17:00,
2013-04-27 21:22:00,51.3,47.9,0.00,ENE,77,2.0,3.4,88,0.00,,,0.00,WUHU216CR1000,2013-04-28 04:22:00,
2013-04-27 21:32:00,51.1,47.9,0.00,NE,56,1.8,2.9,88,0.00,,,0.00,WUHU216CR1000,2013-04-28 04:32:00,
2013-04-27 21:37:00,51.1,47.9,0.00,NE,56,1.8,2.9,88,0.00,,,0.00,WUHU216CR1000,2013-04-28 04:37:00,
2013-04-27 21:47:00,50.7,47.5,0.00,ENE,66,2.2,3.7,89,0.00,,,0.00,WUHU216CR1000,2013-04-28 04:47:00,
2013-04-27 21:52:00,50.7,47.5,0.00,ENE,66,2.2,3.7,89,0.00,,,0.00,WUHU216CR1000,2013-04-28 04:52:00,
2013-04-27 22:02:00,50.0,47.2,0.00,East,80,2.2,3.5,90,0.00,,,0.00,WUHU216CR1000,2013-04-28 05:02:00,
2013-04-27 22:07:00,50.0,47.2,0.00,East,80,2.2,3.5,90,0.00,,,0.00,WUHU216CR1000,2013-04-28 05:07:00,
2013-04-27 22:17:00,49.6,46.9,0.00,ENE,73,1.7,3.2,91,0.00,,,0.00,WUHU216CR1000,2013-04-28 05:17:00,
2013-04-27 22:22:00,49.6,46.9,0.00,ENE,73,1.7,3.2,91,0.00,,,0.00,WUHU216CR1000,2013-04-28 05:22:00,
2013-04-27 22:32:00,49.5,46.9,0.00,ENE,62,0.8,1.5,91,0.00,,,0.00,WUHU216CR1000,2013-04-28 05:32:00,
2013-04-27 22:37:00,49.5,46.9,0.00,ENE,62,0.8,1.5,91,0.00,,,0.00,WUHU216CR1000,2013-04-28 05:37:00,
2013-04-27 22:47:00,49.0,46.6,0.00,East,99,0.1,1.0,91,0.00,,,0.00,WUHU216CR1000,2013-04-28 05:47:00,
2013-04-27 22:52:00,49.0,46.6,0.00,East,99,0.1,1.0,91,0.00,,,0.00,WUHU216CR1000,2013-04-28 05:52:00,
2013-04-27 23:02:00,48.8,46.7,0.00,East,92,0.5,2.0,93,0.00,,,0.00,WUHU216CR1000,2013-04-28 06:02:00,
2013-04-27 23:07:00,48.8,46.7,0.00,East,92,0.5,2.0,93,0.00,,,0.00,WUHU216CR1000,2013-04-28 06:07:00,
2013-04-27 23:17:00,48.5,46.3,0.00,South,177,0.2,1.5,92,0.00,,,0.00,WUHU216CR1000,2013-04-28 06:17:00,
2013-04-27 23:22:00,48.5,46.3,0.00,South,177,0.2,1.5,92,0.00,,,0.00,WUHU216CR1000,2013-04-28 06:22:00,
2013-04-27 23:32:00,47.7,45.5,0.00,NW,311,0.3,1.3,92,0.00,,,0.00,WUHU216CR1000,2013-04-28 06:32:00,
2013-04-27 23:37:00,47.7,45.5,0.00,NW,311,0.3,1.3,92,0.00,,,0.00,WUHU216CR1000,2013-04-28 06:37:00,
2013-04-27 23:47:00,47.6,45.9,0.00,ENE,59,0.6,1.3,94,0.00,,,0.00,WUHU216CR1000,2013-04-28 06:47:00,
2013-04-27 23:52:00,47.6,45.9,0.00,ENE,59,0.6,1.3,94,0.00,,,0.00,WUHU216CR1000,2013-04-28 06:52:00,